createdAt,value
2022-09-14T00:00:01.944Z,25.20
2022-09-14T00:01:24.271Z,29.80
2022-09-14T00:02:02.953Z,31.80
2022-09-14T00:03:02.919Z,29.40
2022-09-14T00:04:02.738Z,33.30
2022-09-14T00:05:02.762Z,25.70
2022-09-14T00:06:02.715Z,25.10
2022-09-14T00:07:02.706Z,24.20
2022-09-14T00:08:02.685Z,35.30
2022-09-14T00:09:02.679Z,29.30
2022-09-14T00:10:02.675Z,28.10
2022-09-14T00:11:02.647Z,24.20
2022-09-14T00:12:02.636Z,27.00
2022-09-14T00:13:02.638Z,28.90
2022-09-14T00:14:02.621Z,29.10
2022-09-14T00:15:02.594Z,31.40
2022-09-14T00:16:02.614Z,23.80
2022-09-14T00:17:02.621Z,36.00
2022-09-14T00:18:02.566Z,28.90
2022-09-14T00:19:02.576Z,35.90
2022-09-14T00:20:02.532Z,32.60
2022-09-14T00:21:02.518Z,32.40
2022-09-14T00:22:02.504Z,40.10
2022-09-14T00:23:02.497Z,36.00
2022-09-14T00:24:02.513Z,33.50
2022-09-14T00:25:02.468Z,42.20
2022-09-14T00:26:02.442Z,35.20
2022-09-14T00:27:02.432Z,37.30
2022-09-14T00:28:02.420Z,38.00
2022-09-14T00:29:02.422Z,41.80
2022-09-14T00:30:02.391Z,39.00
2022-09-14T00:31:02.381Z,42.60
2022-09-14T00:32:02.433Z,44.70
2022-09-14T00:33:02.351Z,46.20
2022-09-14T00:34:02.376Z,41.30
2022-09-14T00:35:02.327Z,43.20
2022-09-14T00:36:02.304Z,45.50
2022-09-14T00:37:02.300Z,52.50
2022-09-14T00:38:02.305Z,45.00
2022-09-14T00:39:02.294Z,58.60
2022-09-14T00:40:02.319Z,47.50
2022-09-14T00:41:02.266Z,46.50
2022-09-14T00:42:02.264Z,51.00
2022-09-14T00:43:02.223Z,50.70
2022-09-14T00:44:02.246Z,59.30
2022-09-14T00:45:02.215Z,61.80
2022-09-14T00:46:02.259Z,66.30
2022-09-14T00:47:02.166Z,66.70
2022-09-14T00:48:02.151Z,58.20
2022-09-14T00:49:02.146Z,66.30
2022-09-14T00:50:02.124Z,75.70
2022-09-14T00:51:02.119Z,70.00
2022-09-14T00:52:02.096Z,67.70
2022-09-14T00:53:02.077Z,72.10
2022-09-14T00:54:02.085Z,66.00
2022-09-14T00:55:02.041Z,76.50
2022-09-14T00:56:02.037Z,89.90
2022-09-14T00:57:02.015Z,86.40
2022-09-14T00:58:02.007Z,80.10
2022-09-14T00:59:02.173Z,76.00
2022-09-14T01:00:01.969Z,73.30
2022-09-14T01:01:02.025Z,74.50
2022-09-14T01:02:02.020Z,77.80
2022-09-14T01:03:01.931Z,73.10
2022-09-14T01:04:01.947Z,71.00
2022-09-14T01:05:01.924Z,65.10
2022-09-14T01:06:01.896Z,74.70
2022-09-14T01:07:01.881Z,76.70
2022-09-14T01:08:01.881Z,75.50
2022-09-14T01:09:01.874Z,67.30
2022-09-14T01:10:01.861Z,68.90
2022-09-14T01:11:01.829Z,61.80
2022-09-14T01:12:01.824Z,69.70
2022-09-14T01:13:01.800Z,61.70
2022-09-14T01:14:01.810Z,67.30
2022-09-14T01:15:01.785Z,67.80
2022-09-14T01:16:01.815Z,62.20
2022-09-14T01:17:01.749Z,56.90
2022-09-14T01:18:01.762Z,56.30
2022-09-14T01:19:01.744Z,55.60
2022-09-14T01:20:01.701Z,51.70
2022-09-14T01:21:01.689Z,56.60
2022-09-14T01:22:01.685Z,49.00
2022-09-14T01:23:01.656Z,56.70
2022-09-14T01:24:01.667Z,46.10
2022-09-14T01:25:01.637Z,52.70
2022-09-14T01:26:01.623Z,47.80
2022-09-14T01:27:01.615Z,49.30
2022-09-14T01:28:01.590Z,45.30
2022-09-14T01:29:01.619Z,54.70
2022-09-14T01:30:01.572Z,43.10
2022-09-14T01:31:01.573Z,43.10
2022-09-14T01:32:01.610Z,46.20
2022-09-14T01:33:01.529Z,43.50
2022-09-14T01:34:01.533Z,44.70
2022-09-14T01:35:01.496Z,46.00
2022-09-14T01:36:01.478Z,45.00
2022-09-14T01:37:01.483Z,48.60
2022-09-14T01:38:01.460Z,54.10
2022-09-14T01:39:01.456Z,44.80
2022-09-14T01:40:01.516Z,44.90
2022-09-14T01:41:01.416Z,41.80
2022-09-14T01:42:01.415Z,47.00
2022-09-14T01:43:01.386Z,42.30
2022-09-14T01:44:01.395Z,45.70
2022-09-14T01:45:01.372Z,55.10
2022-09-14T01:46:01.409Z,46.90
2022-09-14T01:47:01.336Z,44.30
2022-09-14T01:48:01.333Z,50.30
2022-09-14T01:49:01.325Z,49.40
2022-09-14T01:50:01.300Z,56.50
2022-09-14T01:51:01.304Z,46.10
2022-09-14T01:52:01.280Z,46.80
2022-09-14T01:53:01.255Z,50.20
2022-09-14T01:54:01.265Z,51.50
2022-09-14T01:55:01.227Z,56.00
2022-09-14T01:56:01.221Z,57.30
2022-09-14T01:57:01.269Z,52.20
2022-09-14T01:58:01.189Z,54.70
2022-09-14T01:59:01.193Z,53.80
2022-09-14T02:00:01.189Z,53.00
2022-09-14T02:01:01.178Z,49.00
2022-09-14T02:02:01.200Z,55.30
2022-09-14T02:03:01.131Z,66.50
2022-09-14T02:04:01.127Z,67.40
2022-09-14T02:05:01.090Z,70.10
2022-09-14T02:06:01.087Z,64.70
2022-09-14T02:07:01.062Z,67.90
2022-09-14T02:08:01.062Z,61.20
2022-09-14T02:09:01.060Z,74.90
2022-09-14T02:10:01.051Z,78.60
2022-09-14T02:11:01.015Z,79.10
2022-09-14T02:12:01.025Z,78.10
2022-09-14T02:13:00.985Z,80.40
2022-09-14T02:14:00.988Z,74.00
2022-09-14T02:15:00.960Z,82.30
2022-09-14T02:16:01.026Z,83.50
2022-09-14T02:17:00.918Z,88.50
2022-09-14T02:18:00.912Z,94.70
2022-09-14T02:19:00.940Z,95.10
2022-09-14T02:20:00.883Z,97.60
2022-09-14T02:21:00.886Z,98.20
2022-09-14T02:22:00.880Z,99.50
2022-09-14T02:23:00.871Z,96.50
2022-09-14T02:24:00.876Z,97.70
2022-09-14T02:25:00.828Z,96.30
2022-09-14T02:26:00.817Z,89.30
2022-09-14T02:27:00.800Z,89.20
2022-09-14T02:28:00.795Z,94.70
2022-09-14T02:29:00.790Z,104.30
2022-09-14T02:30:00.760Z,93.50
2022-09-14T02:31:00.852Z,104.50
2022-09-14T02:32:00.728Z,97.50
2022-09-14T02:33:00.714Z,98.30
2022-09-14T02:34:00.731Z,94.70
2022-09-14T02:35:00.701Z,115.20
2022-09-14T02:36:00.670Z,96.00
2022-09-14T02:37:00.662Z,95.50
2022-09-14T02:38:00.640Z,99.50
2022-09-14T02:39:00.636Z,102.60
2022-09-14T02:40:00.710Z,96.60
2022-09-14T02:41:00.632Z,91.70
2022-09-14T02:42:00.595Z,102.30
2022-09-14T02:43:00.575Z,105.30
2022-09-14T02:44:00.609Z,103.50
2022-09-14T02:45:00.533Z,99.30
2022-09-14T02:46:00.535Z,92.00
2022-09-14T02:47:00.623Z,99.60
2022-09-14T02:48:00.521Z,93.60
2022-09-14T02:49:00.522Z,91.40
2022-09-14T02:50:00.485Z,98.40
2022-09-14T02:51:00.460Z,96.80
2022-09-14T02:52:00.455Z,107.20
2022-09-14T02:53:00.439Z,94.30
2022-09-14T02:54:00.449Z,94.40
2022-09-14T02:55:00.409Z,96.30
2022-09-14T02:56:00.396Z,135.00
2022-09-14T02:57:00.380Z,116.80
2022-09-14T02:58:00.379Z,129.00
2022-09-14T02:59:00.378Z,117.10
2022-09-14T03:00:00.377Z,112.40
2022-09-14T03:01:00.479Z,135.50
2022-09-14T03:02:00.420Z,157.80
2022-09-14T03:03:00.299Z,153.90
2022-09-14T03:04:00.343Z,166.70
2022-09-14T03:05:00.269Z,149.30
2022-09-14T03:06:00.268Z,160.00
2022-09-14T03:07:00.258Z,179.40
2022-09-14T03:08:00.236Z,225.50
2022-09-14T03:09:00.243Z,189.10
2022-09-14T03:10:00.207Z,162.30
2022-09-14T03:11:00.200Z,221.60
2022-09-14T03:12:00.192Z,177.40
2022-09-14T03:13:00.165Z,120.70
2022-09-14T03:14:00.177Z,108.70
2022-09-14T03:15:00.135Z,82.50
2022-09-14T03:16:00.193Z,70.90
2022-09-14T03:17:00.117Z,66.10
2022-09-14T03:18:00.108Z,56.40
2022-09-14T03:19:00.101Z,49.40
2022-09-14T03:20:00.122Z,55.80
2022-09-14T03:21:00.075Z,62.30
2022-09-14T03:22:00.048Z,73.70
2022-09-14T03:23:00.039Z,66.60
2022-09-14T03:24:00.051Z,53.30
2022-09-14T03:25:00.133Z,61.10
2022-09-14T03:25:59.994Z,61.40
2022-09-14T03:26:59.976Z,58.10
2022-09-14T03:27:59.966Z,79.70
2022-09-14T03:28:59.983Z,66.40
2022-09-14T03:30:00.208Z,56.60
2022-09-14T03:30:59.950Z,55.50
2022-09-14T03:31:59.911Z,54.30
2022-09-14T03:32:59.892Z,55.10
2022-09-14T03:33:59.945Z,51.70
2022-09-14T03:34:59.884Z,44.30
2022-09-14T03:35:59.859Z,40.40
2022-09-14T03:36:59.839Z,51.30
2022-09-14T03:37:59.901Z,37.50
2022-09-14T03:39:00.029Z,42.20
2022-09-14T03:39:59.870Z,44.40
2022-09-14T03:40:59.833Z,40.50
2022-09-14T03:41:59.769Z,44.00
2022-09-14T03:42:59.755Z,41.60
2022-09-14T03:44:00.089Z,38.90
2022-09-14T03:44:59.724Z,31.20
2022-09-14T03:45:59.838Z,39.30
2022-09-14T03:46:59.754Z,36.20
2022-09-14T03:47:59.699Z,41.70
2022-09-14T03:49:00.196Z,36.50
2022-09-14T03:49:59.698Z,45.40
2022-09-14T03:50:59.643Z,44.00
2022-09-14T03:52:00.009Z,31.90
2022-09-14T03:52:59.623Z,35.70
2022-09-14T03:53:59.665Z,33.60
2022-09-14T03:54:59.595Z,35.00
2022-09-14T03:55:59.582Z,34.10
2022-09-14T03:56:59.563Z,31.20
2022-09-14T03:57:59.562Z,44.30
2022-09-14T03:58:59.566Z,41.90
2022-09-14T03:59:59.587Z,41.20
2022-09-14T04:00:59.542Z,28.60
2022-09-14T04:01:59.535Z,30.70
2022-09-14T04:02:59.574Z,38.50
2022-09-14T04:03:59.488Z,38.90
2022-09-14T04:04:59.465Z,30.30
2022-09-14T04:05:59.470Z,36.00
2022-09-14T04:06:59.453Z,37.00
2022-09-14T04:07:59.429Z,42.10
2022-09-14T04:08:59.436Z,33.80
2022-09-14T04:09:59.415Z,39.50
2022-09-14T04:10:59.364Z,33.90
2022-09-14T04:11:59.373Z,40.20
2022-09-14T04:12:59.346Z,38.20
2022-09-14T04:13:59.343Z,38.80
2022-09-14T04:14:59.345Z,43.40
2022-09-14T04:15:59.368Z,46.40
2022-09-14T04:16:59.286Z,50.40
2022-09-14T04:17:59.378Z,53.20
2022-09-14T04:18:59.297Z,51.40
2022-09-14T04:19:59.278Z,41.50
2022-09-14T04:20:59.225Z,46.60
2022-09-14T04:21:59.226Z,41.40
2022-09-14T04:22:59.219Z,46.50
2022-09-14T04:24:16.187Z,43.40
2022-09-14T04:24:59.221Z,43.20
2022-09-14T04:25:59.205Z,44.40
2022-09-14T04:26:59.176Z,45.80
2022-09-14T04:28:19.085Z,41.60
2022-09-14T04:28:59.321Z,47.20
2022-09-14T04:29:59.128Z,46.10
2022-09-14T04:30:59.167Z,53.80
2022-09-14T04:31:59.099Z,56.40
2022-09-14T04:32:59.090Z,52.70
2022-09-14T04:33:59.073Z,53.70
2022-09-14T04:34:59.043Z,49.10
2022-09-14T04:35:59.036Z,57.30
2022-09-14T04:36:59.017Z,48.80
2022-09-14T04:37:59.017Z,62.50
2022-09-14T04:38:59.000Z,65.90
2022-09-14T04:39:59.045Z,51.90
2022-09-14T04:40:58.957Z,50.10
2022-09-14T04:41:58.949Z,49.40
2022-09-14T04:42:58.934Z,50.80
2022-09-14T04:43:58.940Z,68.40
2022-09-14T04:44:58.912Z,73.90
2022-09-14T04:45:58.894Z,65.10
2022-09-14T04:46:58.913Z,57.80
2022-09-14T04:47:58.808Z,51.40
2022-09-14T04:48:58.883Z,72.20
2022-09-14T04:49:58.842Z,49.90
2022-09-14T04:50:58.800Z,58.90
2022-09-14T04:51:58.757Z,68.20
2022-09-14T04:52:58.737Z,54.50
2022-09-14T04:53:58.771Z,58.10
2022-09-14T04:54:58.720Z,97.30
2022-09-14T04:55:58.703Z,71.70
2022-09-14T04:56:58.744Z,46.90
2022-09-14T04:57:58.739Z,65.40
2022-09-14T04:58:58.730Z,69.60
2022-09-14T04:59:58.695Z,78.80
2022-09-14T05:00:58.638Z,76.30
2022-09-14T05:01:58.718Z,77.90
2022-09-14T05:02:58.707Z,75.10
2022-09-14T05:03:58.639Z,58.80
2022-09-14T05:04:58.596Z,82.10
2022-09-14T05:05:58.582Z,86.10
2022-09-14T05:06:58.560Z,68.80
2022-09-14T05:07:58.532Z,71.80
2022-09-14T05:08:58.539Z,70.50
2022-09-14T05:09:58.503Z,79.30
2022-09-14T05:10:58.515Z,74.80
2022-09-14T05:11:58.474Z,68.00
2022-09-14T05:12:58.547Z,81.60
2022-09-14T05:13:58.493Z,70.60
2022-09-14T05:14:58.443Z,75.20
2022-09-14T05:15:58.476Z,65.60
2022-09-14T05:16:58.473Z,73.00
2022-09-14T05:17:58.399Z,84.50
2022-09-14T05:18:58.420Z,91.00
2022-09-14T05:19:58.364Z,85.80
2022-09-14T05:20:58.386Z,89.00
2022-09-14T05:21:58.337Z,72.70
2022-09-14T05:22:58.331Z,81.80
2022-09-14T05:23:58.335Z,94.10
2022-09-14T05:24:58.345Z,82.70
2022-09-14T05:25:58.306Z,75.70
2022-09-14T05:27:00.603Z,89.60
2022-09-14T05:27:58.266Z,89.30
2022-09-14T05:28:58.267Z,88.40
2022-09-14T05:29:58.228Z,79.50
2022-09-14T05:30:58.281Z,93.20
2022-09-14T05:31:58.214Z,77.30
2022-09-14T05:32:58.285Z,69.00
2022-09-14T05:33:58.212Z,77.90
2022-09-14T05:34:58.190Z,74.80
2022-09-14T05:35:58.153Z,97.90
2022-09-14T05:36:58.137Z,101.60
2022-09-14T05:37:58.140Z,91.10
2022-09-14T05:38:58.129Z,81.90
2022-09-14T05:39:58.165Z,79.20
2022-09-14T05:40:58.116Z,89.20
2022-09-14T05:41:58.062Z,93.90
2022-09-14T05:42:58.060Z,92.80
2022-09-14T05:43:58.056Z,98.80
2022-09-14T05:44:58.060Z,78.70
2022-09-14T05:45:58.055Z,92.70
2022-09-14T05:46:58.038Z,76.00
2022-09-14T05:47:57.988Z,87.00
2022-09-14T05:48:58.079Z,86.80
2022-09-14T05:49:57.958Z,81.10
2022-09-14T05:50:57.957Z,74.30
2022-09-14T05:51:57.961Z,92.10
2022-09-14T05:52:57.923Z,77.00
2022-09-14T05:53:57.923Z,91.40
2022-09-14T05:54:57.953Z,70.50
2022-09-14T05:55:57.924Z,90.00
2022-09-14T05:56:57.870Z,88.50
2022-09-14T05:57:57.861Z,84.10
2022-09-14T05:58:57.854Z,91.90
2022-09-14T05:59:57.871Z,77.90
2022-09-14T06:00:57.808Z,68.90
2022-09-14T06:01:57.840Z,72.50
2022-09-14T06:02:57.792Z,67.40
2022-09-14T06:03:57.789Z,77.50
2022-09-14T06:04:57.806Z,69.60
2022-09-14T06:05:57.739Z,77.80
2022-09-14T06:07:17.475Z,67.00
2022-09-14T06:07:57.755Z,61.30
2022-09-14T06:08:57.749Z,64.10
2022-09-14T06:09:57.690Z,65.70
2022-09-14T06:10:57.702Z,63.20
2022-09-14T06:11:57.662Z,64.60
2022-09-14T06:12:57.662Z,74.20
2022-09-14T06:13:57.649Z,71.00
2022-09-14T06:14:57.630Z,94.80
2022-09-14T06:15:57.597Z,71.70
2022-09-14T06:16:57.601Z,85.00
2022-09-14T06:17:57.585Z,68.90
2022-09-14T06:18:57.610Z,64.60
2022-09-14T06:20:01.051Z,79.60
2022-09-14T06:20:57.554Z,67.40
2022-09-14T06:21:57.521Z,82.50
2022-09-14T06:22:57.519Z,76.60
2022-09-14T06:23:57.512Z,74.10
2022-09-14T06:24:57.510Z,71.60
2022-09-14T06:25:57.466Z,76.60
2022-09-14T06:26:57.471Z,69.60
2022-09-14T06:27:57.453Z,82.90
2022-09-14T06:28:57.463Z,81.40
2022-09-14T06:29:57.422Z,85.80
2022-09-14T06:30:57.405Z,83.10
2022-09-14T06:31:57.394Z,95.50
2022-09-14T06:32:57.382Z,69.60
2022-09-14T06:33:57.398Z,78.10
2022-09-14T06:34:57.351Z,74.80
2022-09-14T06:35:57.376Z,71.90
2022-09-14T06:36:57.334Z,82.90
2022-09-14T06:37:57.314Z,61.00
2022-09-14T06:38:57.336Z,66.90
2022-09-14T06:39:57.340Z,70.70
2022-09-14T06:40:57.271Z,71.30
2022-09-14T06:41:57.253Z,69.20
2022-09-14T06:42:57.250Z,84.80
2022-09-14T06:43:57.245Z,67.50
2022-09-14T06:44:57.219Z,78.90
2022-09-14T06:45:57.196Z,66.80
2022-09-14T06:46:57.197Z,72.60
2022-09-14T06:47:57.174Z,77.30
2022-09-14T06:48:57.185Z,60.80
2022-09-14T06:49:57.165Z,67.50
2022-09-14T06:50:57.144Z,76.40
2022-09-14T06:51:57.118Z,68.40
2022-09-14T06:52:57.109Z,78.00
2022-09-14T06:53:57.128Z,74.60
2022-09-14T06:54:57.087Z,74.10
2022-09-14T06:55:57.066Z,65.20
2022-09-14T06:56:57.052Z,73.60
2022-09-14T06:57:57.044Z,62.60
2022-09-14T06:58:57.076Z,70.60
2022-09-14T06:59:57.053Z,55.90
2022-09-14T07:00:57.002Z,68.90
2022-09-14T07:01:57.060Z,76.60
2022-09-14T07:02:57.029Z,67.00
2022-09-14T07:03:56.978Z,70.80
2022-09-14T07:04:56.952Z,70.30
2022-09-14T07:05:56.934Z,72.20
2022-09-14T07:06:56.921Z,54.30
2022-09-14T07:07:56.952Z,63.90
2022-09-14T07:08:56.923Z,66.00
2022-09-14T07:09:56.880Z,73.70
2022-09-14T07:10:56.866Z,57.70
2022-09-14T07:11:56.879Z,68.00
2022-09-14T07:12:56.841Z,62.10
2022-09-14T07:13:56.840Z,57.70
2022-09-14T07:14:56.817Z,58.50
2022-09-14T07:15:56.799Z,68.80
2022-09-14T07:16:56.781Z,61.20
2022-09-14T07:17:56.773Z,54.50
2022-09-14T07:18:56.780Z,61.20
2022-09-14T07:19:56.740Z,70.40
2022-09-14T07:20:56.742Z,64.60
2022-09-14T07:21:56.717Z,81.40
2022-09-14T07:22:56.709Z,75.10
2022-09-14T07:23:57.142Z,76.00
2022-09-14T07:24:56.821Z,60.20
2022-09-14T07:25:56.730Z,78.30
2022-09-14T07:29:55.850Z,59.10
2022-09-14T07:30:59.014Z,69.30
2022-09-14T07:31:56.754Z,53.90
2022-09-14T07:32:56.753Z,53.20
2022-09-14T07:33:56.753Z,55.80
2022-09-14T07:34:56.710Z,64.20
2022-09-14T07:35:56.721Z,72.60
2022-09-14T07:36:56.703Z,63.30
2022-09-14T07:37:56.668Z,59.00
2022-09-14T07:38:56.689Z,67.30
2022-09-14T07:39:56.750Z,61.90
2022-09-14T07:40:56.625Z,70.10
2022-09-14T07:41:56.672Z,75.40
2022-09-14T07:42:57.766Z,61.40
2022-09-14T07:43:56.642Z,53.40
2022-09-14T07:44:56.597Z,59.00
2022-09-14T07:45:56.586Z,72.50
2022-09-14T07:46:56.549Z,64.50
2022-09-14T07:47:56.550Z,57.70
2022-09-14T07:48:56.555Z,61.80
2022-09-14T07:49:56.522Z,58.10
2022-09-14T07:50:56.507Z,51.50
2022-09-14T07:51:56.489Z,58.10
2022-09-14T07:52:56.478Z,59.90
2022-09-14T07:53:56.493Z,62.20
2022-09-14T07:54:56.449Z,71.10
2022-09-14T07:55:56.442Z,61.90
2022-09-14T07:56:56.427Z,68.40
2022-09-14T07:57:56.906Z,58.20
2022-09-14T07:59:07.097Z,58.00
2022-09-14T07:59:56.397Z,64.30
2022-09-14T08:00:56.442Z,54.80
2022-09-14T08:01:56.491Z,45.90
2022-09-14T08:02:56.420Z,50.60
2022-09-14T08:03:56.358Z,57.60
2022-09-14T08:04:56.333Z,69.60
2022-09-14T08:05:56.312Z,55.00
2022-09-14T08:06:56.314Z,59.80
2022-09-14T08:07:56.310Z,61.50
2022-09-14T08:08:56.285Z,62.00
2022-09-14T08:09:56.256Z,56.00
2022-09-14T08:10:56.239Z,54.30
2022-09-14T08:11:56.231Z,55.20
2022-09-14T08:12:56.213Z,68.60
2022-09-14T08:13:56.247Z,64.30
2022-09-14T08:14:56.183Z,68.40
2022-09-14T08:15:56.184Z,57.70
2022-09-14T08:16:56.215Z,65.90
2022-09-14T08:17:56.150Z,64.50
2022-09-14T08:18:56.237Z,51.50
2022-09-14T08:19:56.135Z,60.60
2022-09-14T08:20:56.105Z,50.90
2022-09-14T08:21:56.099Z,55.60
2022-09-14T08:22:56.078Z,61.50
2022-09-14T08:23:56.105Z,52.20
2022-09-14T08:24:56.059Z,70.20
2022-09-14T08:25:56.048Z,48.30
